createdAt,value
2017-10-28T00:01:49.458Z,67.50
2017-10-28T00:04:17.414Z,67.40
2017-10-28T00:06:45.379Z,67.70
2017-10-28T00:09:13.780Z,67.90
2017-10-28T00:11:42.135Z,68.10
2017-10-28T00:14:10.902Z,67.70
2017-10-28T00:16:39.241Z,67.60
2017-10-28T00:19:07.573Z,66.80
2017-10-28T00:21:35.949Z,66.30
2017-10-28T00:24:04.275Z,66.60
2017-10-28T00:26:32.686Z,67.20
2017-10-28T00:29:01.035Z,67.10
2017-10-28T00:31:34.942Z,67.30
2017-10-28T00:34:08.468Z,67.60
2017-10-28T00:36:36.870Z,67.60
2017-10-28T00:39:05.190Z,67.60
2017-10-28T00:41:33.158Z,67.90
2017-10-28T00:44:01.534Z,68.30
2017-10-28T00:46:29.870Z,68.50
2017-10-28T00:48:58.263Z,69.00
2017-10-28T00:51:26.613Z,69.40
2017-10-28T00:53:55.351Z,69.70
2017-10-28T00:56:23.677Z,69.20
2017-10-28T00:58:52.075Z,68.70
2017-10-28T01:01:20.790Z,68.40
2017-10-28T01:03:49.118Z,68.40
2017-10-28T01:08:46.443Z,68.80
2017-10-28T01:11:14.845Z,68.40
2017-10-28T01:13:42.815Z,69.00
2017-10-28T01:18:40.873Z,68.60
2017-10-28T01:21:09.277Z,68.70
2017-10-28T01:23:37.610Z,68.70
2017-10-28T01:26:06.003Z,68.80
2017-10-28T01:28:34.351Z,69.00
2017-10-28T01:31:02.320Z,68.60
2017-10-28T01:33:30.385Z,68.50
2017-10-28T01:35:58.746Z,68.70
2017-10-28T01:38:27.130Z,68.60
2017-10-28T01:40:55.087Z,68.30
2017-10-28T01:43:23.461Z,67.90
2017-10-28T01:45:51.429Z,68.00
2017-10-28T01:48:19.806Z,67.90
2017-10-28T01:50:48.131Z,67.20
2017-10-28T01:53:16.887Z,67.00
2017-10-28T01:55:45.262Z,66.50
2017-10-28T01:58:13.219Z,67.20
2017-10-28T02:00:41.233Z,67.60
2017-10-28T02:03:09.202Z,68.00
2017-10-28T02:05:37.221Z,68.00
2017-10-28T02:08:05.550Z,68.00
2017-10-28T02:10:33.932Z,67.80
2017-10-28T02:13:02.274Z,68.30
2017-10-28T02:15:30.672Z,68.40
2017-10-28T02:20:28.001Z,68.30
2017-10-28T02:22:56.333Z,68.10
2017-10-28T02:25:25.039Z,68.10
2017-10-28T02:27:54.160Z,68.00
2017-10-28T02:30:22.487Z,68.00
2017-10-28T02:32:50.866Z,68.00
2017-10-28T02:35:19.209Z,68.00
2017-10-28T02:37:47.602Z,68.10
2017-10-28T02:40:15.940Z,68.40
2017-10-28T02:42:44.330Z,68.40
2017-10-28T02:45:12.675Z,69.30
2017-10-28T02:47:40.641Z,69.60
2017-10-28T02:50:09.038Z,68.60
2017-10-28T02:52:37.467Z,68.30
2017-10-28T02:55:05.843Z,68.30
2017-10-28T02:57:34.170Z,68.50
2017-10-28T03:00:02.546Z,68.60
2017-10-28T03:02:30.878Z,68.80
2017-10-28T03:04:59.251Z,69.10
2017-10-28T03:07:27.583Z,69.20
2017-10-28T03:12:24.900Z,69.80
2017-10-28T03:14:53.244Z,69.60
2017-10-28T03:17:21.637Z,69.50
2017-10-28T03:19:49.975Z,69.60
2017-10-28T03:22:18.358Z,69.70
2017-10-28T03:24:46.692Z,69.70
2017-10-28T03:27:15.089Z,69.60
2017-10-28T03:29:43.790Z,69.20
2017-10-28T03:32:12.122Z,68.70
2017-10-28T03:34:40.871Z,68.10
2017-10-28T03:37:09.213Z,68.00
2017-10-28T03:39:37.611Z,67.80
2017-10-28T03:42:05.936Z,67.60
2017-10-28T03:44:34.316Z,68.00
2017-10-28T03:47:02.652Z,68.00
2017-10-28T03:49:31.058Z,68.10
2017-10-28T03:51:59.399Z,68.50
2017-10-28T03:54:27.386Z,68.70
2017-10-28T03:56:55.789Z,68.90
2017-10-28T03:59:24.114Z,69.10
2017-10-28T04:01:52.539Z,68.80
2017-10-28T04:04:20.873Z,68.60
2017-10-28T04:06:50.018Z,68.50
2017-10-28T04:09:18.346Z,68.60
2017-10-28T04:11:46.738Z,68.80
2017-10-28T04:14:15.094Z,69.00
2017-10-28T04:16:43.525Z,68.90
2017-10-28T04:19:11.873Z,68.80
2017-10-28T04:21:40.232Z,69.00
2017-10-28T04:24:08.610Z,68.90
2017-10-28T04:26:36.937Z,68.70
2017-10-28T04:29:05.343Z,69.00
2017-10-28T04:31:33.682Z,69.40
2017-10-28T04:34:02.069Z,69.80
2017-10-28T04:36:30.409Z,69.60
2017-10-28T04:38:58.769Z,69.80
2017-10-28T04:41:27.906Z,70.30
2017-10-28T04:43:55.878Z,70.40
2017-10-28T04:46:24.293Z,70.10
2017-10-28T04:48:52.634Z,70.40
2017-10-28T04:51:21.420Z,70.30
2017-10-28T04:53:49.752Z,70.30
2017-10-28T04:56:18.088Z,70.50
2017-10-28T04:58:46.486Z,70.20
2017-10-28T05:01:14.834Z,69.80
2017-10-28T05:03:43.210Z,69.40
2017-10-28T05:06:11.535Z,69.60
2017-10-28T05:08:39.929Z,68.90
2017-10-28T05:11:07.903Z,68.90
2017-10-28T05:13:36.306Z,69.10
2017-10-28T05:18:33.627Z,69.40
2017-10-28T05:21:01.985Z,69.70
2017-10-28T05:23:30.685Z,69.70
2017-10-28T05:25:59.061Z,69.30
2017-10-28T05:28:27.393Z,68.70
2017-10-28T05:30:55.804Z,68.70
2017-10-28T05:33:24.511Z,68.50
2017-10-28T05:35:52.899Z,68.30
2017-10-28T05:38:21.245Z,68.30
2017-10-28T05:40:49.635Z,68.10
2017-10-28T05:45:46.883Z,68.70
2017-10-28T05:48:14.991Z,68.80
2017-10-28T05:50:43.356Z,69.00
2017-10-28T05:53:11.745Z,69.40
2017-10-28T05:55:40.110Z,70.00
2017-10-28T05:58:08.486Z,70.20
2017-10-28T06:00:36.810Z,69.70
2017-10-28T06:03:05.192Z,69.70
2017-10-28T06:05:33.529Z,70.00
2017-10-28T06:08:01.870Z,69.20
2017-10-28T06:10:30.274Z,68.90
2017-10-28T06:12:58.625Z,69.00
2017-10-28T06:15:27.025Z,69.50
2017-10-28T06:20:24.698Z,69.80
2017-10-28T06:22:53.026Z,70.70
2017-10-28T06:25:21.441Z,71.60
2017-10-28T06:27:49.782Z,71.90
2017-10-28T06:30:18.126Z,71.40
2017-10-28T06:32:46.526Z,71.60
2017-10-28T06:35:14.857Z,71.70
2017-10-28T06:37:42.878Z,71.30
2017-10-28T06:40:11.594Z,71.40
2017-10-28T06:42:39.993Z,71.20
2017-10-28T06:45:08.323Z,71.00
2017-10-28T06:47:36.698Z,70.70
2017-10-28T06:50:05.026Z,70.90
2017-10-28T06:52:33.422Z,71.30
2017-10-28T06:55:01.775Z,71.20
2017-10-28T06:57:29.742Z,70.80
2017-10-28T06:59:58.138Z,70.20
2017-10-28T07:02:26.500Z,70.40
2017-10-28T07:04:54.896Z,70.70
2017-10-28T07:07:23.258Z,70.40
2017-10-28T07:09:51.582Z,70.10
2017-10-28T07:12:19.823Z,70.80
2017-10-28T07:14:48.178Z,71.50
2017-10-28T07:17:16.761Z,71.70
2017-10-28T07:22:13.731Z,71.30
2017-10-28T07:24:42.080Z,71.20
2017-10-28T07:27:10.427Z,71.20
2017-10-28T07:29:38.426Z,71.10
2017-10-28T07:32:07.129Z,71.20
2017-10-28T07:34:35.148Z,71.00
2017-10-28T07:37:03.472Z,70.70
2017-10-28T07:39:31.850Z,70.90
2017-10-28T07:41:59.801Z,71.60
2017-10-28T07:44:28.198Z,71.80
2017-10-28T07:46:56.167Z,72.00
2017-10-28T07:49:24.494Z,71.80
2017-10-28T07:51:53.644Z,71.70
2017-10-28T07:54:21.604Z,71.70
2017-10-28T07:56:49.661Z,72.30
2017-10-28T07:59:18.001Z,71.80
2017-10-28T08:06:50.466Z,72.60
2017-10-28T08:09:19.168Z,72.30
2017-10-28T08:11:47.519Z,73.00
2017-10-28T08:14:16.286Z,73.40
2017-10-28T08:19:14.910Z,73.40
2017-10-28T08:21:43.257Z,72.90
2017-10-28T08:24:11.637Z,74.10
2017-10-28T08:26:39.982Z,72.80
2017-10-28T08:29:08.358Z,72.00
2017-10-28T08:31:36.686Z,72.90
2017-10-28T08:34:11.801Z,71.30
2017-10-28T08:36:40.140Z,71.40
2017-10-28T08:39:08.166Z,71.60
2017-10-28T08:41:39.492Z,71.80
2017-10-28T08:44:07.843Z,72.40
2017-10-28T08:46:35.857Z,70.90
2017-10-28T08:49:04.188Z,70.80
2017-10-28T08:51:32.205Z,70.60
2017-10-28T08:54:00.188Z,70.60
2017-10-28T08:56:28.242Z,70.60
2017-10-28T08:58:57.335Z,70.50
2017-10-28T09:01:25.387Z,69.80
2017-10-28T09:03:53.734Z,68.70
2017-10-28T09:06:22.139Z,67.60
2017-10-28T09:08:50.108Z,67.60
2017-10-28T09:11:18.510Z,67.80
2017-10-28T09:13:46.473Z,67.20
2017-10-28T09:16:14.804Z,67.70
2017-10-28T09:23:41.110Z,64.70
2017-10-28T09:26:09.819Z,62.30
2017-10-28T09:28:38.190Z,63.00
2017-10-28T09:31:06.166Z,63.10
2017-10-28T09:33:34.209Z,62.60
2017-10-28T09:36:02.911Z,62.10
2017-10-28T09:38:31.270Z,61.40
2017-10-28T09:41:00.881Z,61.80
2017-10-28T09:43:28.850Z,61.60
2017-10-28T09:45:56.895Z,61.30
2017-10-28T09:48:24.477Z,60.80
2017-10-28T09:50:52.113Z,59.00
2017-10-28T09:53:20.464Z,57.50
2017-10-28T09:55:48.111Z,57.80
2017-10-28T09:58:16.083Z,56.40
2017-10-28T10:00:44.088Z,57.30
2017-10-28T10:03:12.499Z,57.70
2017-10-28T10:05:40.539Z,57.60
2017-10-28T10:10:37.885Z,59.10
2017-10-28T10:13:07.124Z,58.30
2017-10-28T10:15:36.214Z,58.20
2017-10-28T10:18:04.182Z,58.10
2017-10-28T10:20:32.586Z,58.50
2017-10-28T10:23:00.237Z,61.60
2017-10-28T10:25:29.010Z,59.10
2017-10-28T10:27:56.974Z,59.70
2017-10-28T10:30:25.742Z,59.40
2017-10-28T10:32:54.087Z,59.70
2017-10-28T10:35:22.508Z,59.40
2017-10-28T10:37:50.850Z,59.70
2017-10-28T10:40:18.881Z,59.30
2017-10-28T10:42:47.603Z,59.40
2017-10-28T10:45:15.571Z,59.60
2017-10-28T10:47:43.973Z,59.90
2017-10-28T10:50:12.330Z,59.10
2017-10-28T10:52:40.729Z,58.90
2017-10-28T10:55:09.083Z,59.30
2017-10-28T10:57:37.482Z,57.70
2017-10-28T11:00:05.066Z,61.60
2017-10-28T11:02:33.485Z,56.80
2017-10-28T11:05:01.473Z,55.90
2017-10-28T11:07:29.868Z,55.80
2017-10-28T11:09:57.861Z,56.10
2017-10-28T11:12:25.922Z,56.10
2017-10-28T11:14:53.490Z,60.30
2017-10-28T11:17:21.059Z,56.40
2017-10-28T11:19:48.697Z,61.30
2017-10-28T11:22:16.263Z,57.00
2017-10-28T11:24:43.918Z,58.20
2017-10-28T11:27:11.886Z,55.40
2017-10-28T11:29:39.511Z,55.50
2017-10-28T11:32:07.087Z,56.00
2017-10-28T11:34:34.663Z,53.90
2017-10-28T11:37:02.682Z,54.10
2017-10-28T11:39:30.237Z,55.30
2017-10-28T11:41:57.851Z,54.00
2017-10-28T11:44:25.454Z,53.80
2017-10-28T11:46:53.089Z,54.10
2017-10-28T11:49:20.684Z,52.30
2017-10-28T11:51:49.466Z,52.90
2017-10-28T11:54:17.032Z,52.90
2017-10-28T11:56:44.649Z,53.40
2017-10-28T11:59:13.810Z,52.90
2017-10-28T12:01:42.153Z,52.90
2017-10-28T12:04:09.773Z,53.30
2017-10-28T12:09:06.339Z,53.00
2017-10-28T12:11:33.921Z,52.50
2017-10-28T12:14:02.474Z,50.10
2017-10-28T12:16:30.070Z,50.70
2017-10-28T12:18:58.420Z,51.30
2017-10-28T12:21:27.568Z,51.00
2017-10-28T12:23:55.208Z,50.60
2017-10-28T12:26:23.958Z,50.50
2017-10-28T12:28:51.537Z,50.60
2017-10-28T12:31:19.154Z,50.00
2017-10-28T12:33:46.731Z,50.70
2017-10-28T12:36:14.370Z,50.40
2017-10-28T12:38:42.339Z,50.20
2017-10-28T12:41:10.352Z,49.90
2017-10-28T12:43:38.685Z,50.40
2017-10-28T12:46:07.018Z,50.60
2017-10-28T12:48:34.642Z,50.60
2017-10-28T12:51:02.244Z,50.90
2017-10-28T12:53:29.864Z,52.40
2017-10-28T12:55:57.821Z,51.20
2017-10-28T12:58:25.825Z,51.00
2017-10-28T13:00:54.194Z,50.20
2017-10-28T13:03:21.914Z,50.90
2017-10-28T13:05:49.519Z,51.00
2017-10-28T13:08:17.524Z,50.30
2017-10-28T13:10:46.278Z,51.20
2017-10-28T13:13:13.894Z,51.30
2017-10-28T13:15:41.465Z,51.50
2017-10-28T13:18:09.106Z,51.40
2017-10-28T13:23:14.053Z,50.50
2017-10-28T13:25:41.634Z,51.00
2017-10-28T13:28:10.738Z,50.10
2017-10-28T13:30:38.774Z,50.40
2017-10-28T13:33:07.482Z,51.00
2017-10-28T13:35:35.128Z,50.70
2017-10-28T13:38:03.481Z,50.70
2017-10-28T13:40:31.874Z,50.90
2017-10-28T13:42:59.447Z,52.10
2017-10-28T13:45:28.221Z,50.90
2017-10-28T13:47:55.830Z,51.50
2017-10-28T13:50:23.494Z,51.50
2017-10-28T13:55:20.833Z,51.00
2017-10-28T13:57:48.469Z,50.40
2017-10-28T14:00:16.051Z,52.00
2017-10-28T14:02:44.099Z,50.50
2017-10-28T14:05:11.660Z,53.10
2017-10-28T14:07:39.352Z,51.10
2017-10-28T14:12:38.721Z,48.10
2017-10-28T14:15:06.322Z,50.10
2017-10-28T14:17:34.306Z,48.00
2017-10-28T14:20:01.923Z,49.40
2017-10-28T14:22:30.632Z,48.10
2017-10-28T14:27:27.178Z,50.30
2017-10-28T14:29:54.796Z,49.30
2017-10-28T14:32:23.893Z,49.60
2017-10-28T14:37:28.230Z,49.70
2017-10-28T14:39:56.570Z,50.10
2017-10-28T14:42:24.586Z,50.90
2017-10-28T14:47:21.731Z,51.60
2017-10-28T14:49:50.471Z,51.40
2017-10-28T14:52:19.101Z,50.80
2017-10-28T14:54:47.709Z,50.80
2017-10-28T14:57:16.311Z,50.40
2017-10-28T14:59:46.861Z,50.40
2017-10-28T15:02:15.406Z,50.30
2017-10-28T15:07:12.902Z,50.80
2017-10-28T15:09:41.382Z,50.80
2017-10-28T15:12:09.881Z,51.60
2017-10-28T15:17:07.432Z,52.20
2017-10-28T15:22:05.601Z,52.30
2017-10-28T15:24:34.214Z,52.30
2017-10-28T15:27:02.427Z,52.20
2017-10-28T15:29:30.734Z,52.20
2017-10-28T15:31:59.311Z,52.50
2017-10-28T15:34:27.907Z,52.40
2017-10-28T15:36:56.124Z,52.50
2017-10-28T15:39:24.594Z,52.60
2017-10-28T15:41:53.165Z,52.30
2017-10-28T15:44:21.896Z,52.60
2017-10-28T15:46:50.599Z,52.80
2017-10-28T15:49:19.319Z,53.00
2017-10-28T15:51:47.841Z,52.90
2017-10-28T15:54:16.525Z,53.00
2017-10-28T15:56:45.730Z,53.20
2017-10-28T15:59:14.350Z,53.40
2017-10-28T16:01:42.882Z,53.20
2017-10-28T16:04:11.696Z,53.50
2017-10-28T16:06:40.024Z,53.60
2017-10-28T16:09:08.677Z,53.60
2017-10-28T16:11:37.263Z,53.60
2017-10-28T16:14:05.811Z,53.40
2017-10-28T16:16:34.302Z,53.30
2017-10-28T16:19:03.011Z,53.60
2017-10-28T16:21:31.473Z,53.90
2017-10-28T16:23:59.686Z,53.90
2017-10-28T16:26:28.961Z,53.50
2017-10-28T16:28:57.523Z,53.80
2017-10-28T16:31:26.127Z,53.10
2017-10-28T16:33:54.633Z,52.40
2017-10-28T16:36:23.885Z,52.30
2017-10-28T16:38:52.133Z,52.20
2017-10-28T16:41:20.728Z,51.60
2017-10-28T16:43:49.508Z,51.90
2017-10-28T16:46:17.911Z,51.80
2017-10-28T16:48:46.610Z,52.20
2017-10-28T16:51:14.789Z,53.60
2017-10-28T16:53:43.134Z,52.70
2017-10-28T16:56:11.428Z,53.00
2017-10-28T16:58:39.925Z,52.60
2017-10-28T17:01:08.479Z,52.60
2017-10-28T17:03:37.280Z,52.80
2017-10-28T17:06:05.673Z,52.80
2017-10-28T17:08:34.275Z,52.50
2017-10-28T17:11:03.015Z,53.90
2017-10-28T17:13:31.003Z,53.30
2017-10-28T17:16:00.489Z,52.90
2017-10-28T17:18:29.248Z,53.10
2017-10-28T17:20:57.961Z,52.80
2017-10-28T17:23:25.755Z,53.30
2017-10-28T17:25:55.239Z,53.50
2017-10-28T17:28:23.976Z,53.90
2017-10-28T17:30:52.631Z,54.20
2017-10-28T17:33:20.378Z,57.80
2017-10-28T17:35:49.582Z,55.00
2017-10-28T17:38:17.929Z,56.10
2017-10-28T17:40:46.479Z,56.70
2017-10-28T17:43:15.298Z,57.30
2017-10-28T17:45:44.290Z,67.60
2017-10-28T17:53:10.870Z,58.40
2017-10-28T17:55:39.159Z,57.90
2017-10-28T17:58:08.158Z,58.50
2017-10-28T18:00:37.105Z,58.40
2017-10-28T18:03:06.507Z,57.30
2017-10-28T18:05:36.010Z,56.70
2017-10-28T18:08:04.960Z,56.80
2017-10-28T18:10:33.200Z,56.70
2017-10-28T18:13:01.856Z,56.90
2017-10-28T18:15:29.919Z,60.30
2017-10-28T18:17:58.550Z,56.60
2017-10-28T18:22:56.499Z,57.00
2017-10-28T18:25:25.101Z,57.10
2017-10-28T18:27:53.702Z,56.80
2017-10-28T18:30:21.559Z,61.50
2017-10-28T18:32:49.876Z,57.60
2017-10-28T18:35:18.385Z,57.10
2017-10-28T18:37:47.121Z,57.40
2017-10-28T18:40:15.522Z,57.50
2017-10-28T18:42:44.390Z,58.10
2017-10-28T18:45:12.644Z,60.10
2017-10-28T18:47:41.934Z,59.40
2017-10-28T18:50:10.258Z,60.10
2017-10-28T18:52:38.928Z,59.90
2017-10-28T18:55:07.846Z,58.70
2017-10-28T18:57:36.114Z,60.90
2017-10-28T19:00:05.204Z,58.00
2017-10-28T19:02:33.495Z,57.90
2017-10-28T19:05:01.862Z,59.30
2017-10-28T19:07:30.575Z,60.00
2017-10-28T19:09:59.224Z,59.90
2017-10-28T19:12:27.824Z,60.00
2017-10-28T19:17:25.585Z,60.60
2017-10-28T19:19:54.149Z,61.00
2017-10-28T19:22:22.284Z,60.90
2017-10-28T19:24:50.799Z,60.10
2017-10-28T19:27:19.574Z,60.20
2017-10-28T19:32:17.362Z,60.00
2017-10-28T19:34:45.489Z,59.90
2017-10-28T19:37:14.091Z,59.90
2017-10-28T19:39:42.657Z,60.20
2017-10-28T19:42:11.045Z,60.70
2017-10-28T19:44:39.714Z,61.20
2017-10-28T19:47:08.293Z,60.30
2017-10-28T19:49:36.398Z,60.30
2017-10-28T19:52:05.158Z,60.00
2017-10-28T19:57:02.846Z,60.00
2017-10-28T19:59:31.441Z,60.50
2017-10-28T20:01:59.622Z,59.70
2017-10-28T20:06:57.438Z,60.70
2017-10-28T20:09:25.782Z,63.10
2017-10-28T20:11:54.642Z,60.70
2017-10-28T20:14:23.010Z,60.20
2017-10-28T20:16:51.285Z,59.40
2017-10-28T20:19:20.488Z,59.10
2017-10-28T20:21:48.562Z,58.80
2017-10-28T20:24:17.061Z,58.50
2017-10-28T20:26:45.350Z,58.30
2017-10-28T20:29:13.983Z,58.20
2017-10-28T20:31:42.599Z,59.00
2017-10-28T20:34:11.381Z,59.60
2017-10-28T20:36:39.561Z,59.60
2017-10-28T20:39:08.423Z,60.00
2017-10-28T20:41:37.806Z,59.70
2017-10-28T20:44:06.354Z,59.70
2017-10-28T20:46:34.397Z,59.90
2017-10-28T20:49:02.533Z,59.80
2017-10-28T20:51:30.956Z,60.30
2017-10-28T20:53:59.134Z,63.10
2017-10-28T20:56:27.560Z,60.20
2017-10-28T20:58:55.238Z,63.00
2017-10-28T21:01:23.337Z,60.60
2017-10-28T21:03:52.597Z,60.90
2017-10-28T21:06:21.302Z,61.50
2017-10-28T21:08:50.834Z,62.00
2017-10-28T21:11:19.478Z,62.40
2017-10-28T21:13:48.897Z,62.30
2017-10-28T21:16:17.706Z,62.40
2017-10-28T21:18:46.366Z,61.60
2017-10-28T21:21:15.019Z,61.90
2017-10-28T21:23:43.421Z,62.10
2017-10-28T21:26:12.944Z,63.10
2017-10-28T21:28:41.386Z,63.70
2017-10-28T21:33:38.882Z,63.50
2017-10-28T21:36:08.204Z,63.20
2017-10-28T21:38:36.434Z,62.90
2017-10-28T21:41:05.398Z,63.30
2017-10-28T21:43:34.037Z,63.90
2017-10-28T21:46:02.234Z,64.50
2017-10-28T21:48:30.614Z,65.20
2017-10-28T21:50:59.182Z,65.00
2017-10-28T21:53:27.634Z,65.50
2017-10-28T21:55:56.241Z,66.20
2017-10-28T21:58:24.621Z,67.30
2017-10-28T22:00:54.109Z,66.90
2017-10-28T22:03:22.675Z,67.60
2017-10-28T22:05:51.338Z,68.00
2017-10-28T22:08:19.646Z,68.20
2017-10-28T22:10:49.407Z,68.40
2017-10-28T22:13:17.582Z,68.60
2017-10-28T22:15:46.938Z,68.60
2017-10-28T22:18:16.127Z,68.50
2017-10-28T22:20:44.797Z,68.10
2017-10-28T22:23:13.595Z,67.90
2017-10-28T22:25:43.051Z,67.10
2017-10-28T22:28:11.578Z,66.40
2017-10-28T22:30:40.220Z,66.30
2017-10-28T22:33:08.409Z,66.80
2017-10-28T22:35:37.391Z,66.20
2017-10-28T22:38:05.976Z,66.50
2017-10-28T22:40:34.557Z,66.70
2017-10-28T22:43:04.177Z,66.30
2017-10-28T22:45:33.257Z,65.50
2017-10-28T22:48:01.786Z,65.70
2017-10-28T22:50:30.030Z,65.80
2017-10-28T22:52:58.171Z,65.10
2017-10-28T22:55:26.726Z,64.70
2017-10-28T22:57:55.904Z,65.00
2017-10-28T23:00:24.091Z,64.20
2017-10-28T23:02:52.629Z,63.70
2017-10-28T23:05:21.210Z,62.90
2017-10-28T23:07:50.143Z,62.20
2017-10-28T23:10:18.271Z,63.00
2017-10-28T23:12:46.747Z,62.00
2017-10-28T23:15:15.158Z,62.00
2017-10-28T23:17:43.303Z,61.80
2017-10-28T23:20:11.494Z,61.80
2017-10-28T23:22:40.197Z,60.80
2017-10-28T23:25:08.754Z,60.60
2017-10-28T23:27:37.299Z,60.20
2017-10-28T23:30:05.925Z,60.20
2017-10-28T23:32:35.211Z,59.60
2017-10-28T23:35:03.686Z,59.60
2017-10-28T23:37:32.092Z,59.70
2017-10-28T23:40:00.155Z,59.00
2017-10-28T23:42:29.333Z,58.80
2017-10-28T23:44:57.538Z,58.80
2017-10-28T23:47:26.501Z,59.20
2017-10-28T23:49:55.065Z,58.80
2017-10-28T23:52:25.026Z,58.90
2017-10-28T23:57:44.573Z,58.50
